Time;durP1;ratioP1;P1;durP2;ratioP2;P2;SDS_P1;SDS_P2;PMS_P1;PMS_P2;Temp;Humidity;BMP_temperature;BMP_pressure;BME280_temperature;BME280_humidity;BME280_pressure;Samples;Min_cycle;Max_cycle;Signal;HPM_P1;HPM_P2
2023/10/22 00:00:40;;;;;;;;;;;18.40;99.90;;;;;;5036498;28;19986;-64
2023/10/22 00:03:05;;;;;;;;;;;18.30;99.90;;;;;;5036465;28;20436;-61
2023/10/22 00:05:31;;;;;;;;;;;18.30;99.90;;;;;;5036821;28;20357;-61
2023/10/22 00:07:57;;;;;;;;;;;18.30;99.90;;;;;;5036509;28;19993;-61
2023/10/22 00:10:22;;;;;;;;;;;18.30;99.90;;;;;;5036220;28;20010;-64
2023/10/22 00:12:48;;;;;;;;;;;18.30;99.90;;;;;;5036440;28;19982;-62
2023/10/22 00:15:14;;;;;;;;;;;18.10;99.90;;;;;;5036401;28;19982;-64
2023/10/22 00:17:41;;;;;;;;;;;18.00;99.90;;;;;;5036009;28;20468;-61
2023/10/22 00:20:07;;;;;;;;;;;18.00;99.90;;;;;;5036072;28;20499;-63
2023/10/22 00:22:33;;;;;;;;;;;17.90;99.90;;;;;;5036265;28;19988;-64
2023/10/22 00:24:59;;;;;;;;;;;17.90;99.90;;;;;;5036155;28;20073;-64
2023/10/22 00:27:24;;;;;;;;;;;17.80;99.90;;;;;;5036252;28;19982;-60
2023/10/22 00:29:50;;;;;;;;;;;17.70;99.90;;;;;;5036301;28;20490;-61
2023/10/22 00:32:15;;;;;;;;;;;17.60;99.90;;;;;;5036063;28;20375;-62
2023/10/22 00:34:43;;;;;;;;;;;17.70;99.90;;;;;;5036046;28;19982;-62
2023/10/22 00:37:09;;;;;;;;;;;17.80;99.90;;;;;;5035976;28;19984;-62
2023/10/22 00:39:35;;;;;;;;;;;17.80;99.90;;;;;;5036194;28;19986;-62
2023/10/22 00:42:01;;;;;;;;;;;17.90;99.90;;;;;;5035862;28;20486;-62
2023/10/22 00:44:27;;;;;;;;;;;17.90;99.90;;;;;;5035820;28;20064;-62
2023/10/22 00:46:53;;;;;;;;;;;17.90;99.90;;;;;;5035636;28;20017;-64
2023/10/22 00:49:19;;;;;;;;;;;17.90;99.90;;;;;;5035888;28;20098;-65
2023/10/22 00:51:46;;;;;;;;;;;18.00;99.90;;;;;;5035718;28;20500;-64
2023/10/22 00:54:12;;;;;;;;;;;18.00;99.90;;;;;;5035686;28;20054;-62
2023/10/22 00:56:38;;;;;;;;;;;17.90;99.90;;;;;;5036097;28;19986;-62
2023/10/22 00:59:04;;;;;;;;;;;17.80;99.90;;;;;;5035724;28;19986;-63
2023/10/22 01:01:30;;;;;;;;;;;17.70;99.90;;;;;;5035572;28;20391;-62
2023/10/22 01:03:56;;;;;;;;;;;17.70;99.90;;;;;;5035454;28;19994;-63
2023/10/22 01:06:21;;;;;;;;;;;17.70;99.90;;;;;;5035060;28;20012;-65
2023/10/22 01:08:47;;;;;;;;;;;17.70;99.90;;;;;;5035394;28;19986;-65
2023/10/22 01:11:13;;;;;;;;;;;17.60;99.90;;;;;;5035117;28;20067;-62
2023/10/22 01:13:39;;;;;;;;;;;17.60;99.90;;;;;;5035302;28;20386;-64
2023/10/22 01:16:05;;;;;;;;;;;17.60;99.90;;;;;;5035408;28;20002;-63
2023/10/22 01:18:32;;;;;;;;;;;17.60;99.90;;;;;;5034992;28;19982;-62
2023/10/22 01:20:58;;;;;;;;;;;17.60;99.90;;;;;;5035211;28;19990;-62
2023/10/22 01:23:23;;;;;;;;;;;17.50;99.90;;;;;;5035574;28;20076;-64
2023/10/22 01:25:49;;;;;;;;;;;17.50;99.90;;;;;;5035087;28;20349;-61
2023/10/22 01:28:15;;;;;;;;;;;17.50;99.90;;;;;;5034916;28;19990;-61
2023/10/22 01:30:41;;;;;;;;;;;17.50;99.90;;;;;;5034751;28;20006;-64
2023/10/22 01:33:07;;;;;;;;;;;17.50;99.90;;;;;;5034960;28;19986;-63
2023/10/22 01:35:32;;;;;;;;;;;17.50;99.90;;;;;;5034829;28;20490;-64
2023/10/22 01:37:58;;;;;;;;;;;17.40;99.90;;;;;;5034946;28;20313;-62
2023/10/22 01:40:23;;;;;;;;;;;17.30;99.90;;;;;;5034862;28;19982;-61
2023/10/22 01:42:50;;;;;;;;;;;17.30;99.90;;;;;;5034435;28;19982;-62
2023/10/22 01:45:15;;;;;;;;;;;17.30;99.90;;;;;;5034726;28;19986;-63
2023/10/22 01:47:41;;;;;;;;;;;17.30;99.90;;;;;;5034902;28;20088;-62
2023/10/22 01:50:07;;;;;;;;;;;17.40;99.90;;;;;;5034422;28;20006;-62
2023/10/22 01:52:32;;;;;;;;;;;17.40;99.90;;;;;;5034861;28;20444;-63
2023/10/22 01:54:58;;;;;;;;;;;17.40;99.90;;;;;;5034594;28;19989;-62
2023/10/22 01:57:24;;;;;;;;;;;17.40;99.90;;;;;;5034504;28;20077;-64
2023/10/22 01:59:50;;;;;;;;;;;17.40;99.90;;;;;;5034187;28;19989;-63
2023/10/22 02:02:16;;;;;;;;;;;17.20;99.90;;;;;;5034665;28;20439;-61
2023/10/22 02:04:42;;;;;;;;;;;17.20;99.90;;;;;;5034317;28;20034;-61
2023/10/22 02:07:07;;;;;;;;;;;17.20;99.90;;;;;;5034301;28;20026;-62
2023/10/22 02:09:33;;;;;;;;;;;17.20;99.90;;;;;;5034414;28;19986;-63
2023/10/22 02:11:59;;;;;;;;;;;17.20;99.90;;;;;;5034255;28;20080;-62
2023/10/22 02:14:24;;;;;;;;;;;17.20;99.90;;;;;;5033946;28;20507;-63
2023/10/22 02:16:51;;;;;;;;;;;17.10;99.90;;;;;;5034095;28;20006;-61
2023/10/22 02:19:17;;;;;;;;;;;17.10;99.90;;;;;;5033346;28;20399;-62
2023/10/22 02:21:42;;;;;;;;;;;17.10;99.90;;;;;;5034079;28;19982;-63
2023/10/22 02:24:08;;;;;;;;;;;17.10;99.90;;;;;;5034045;28;20011;-63
2023/10/22 02:26:34;;;;;;;;;;;17.20;99.90;;;;;;5033915;28;19982;-63
2023/10/22 02:28:59;;;;;;;;;;;17.10;99.90;;;;;;5034202;28;19986;-62
2023/10/22 02:31:25;;;;;;;;;;;17.10;99.90;;;;;;5033834;28;20454;-64
2023/10/22 02:34:00;;;;;;;;;;;17.10;99.90;;;;;;5033994;28;20072;-62
2023/10/22 02:36:25;;;;;;;;;;;17.10;99.90;;;;;;5033829;28;20073;-61
2023/10/22 02:38:51;;;;;;;;;;;17.10;99.90;;;;;;5033762;28;20033;-64
2023/10/22 02:41:16;;;;;;;;;;;17.10;99.90;;;;;;5033795;28;19989;-63
2023/10/22 02:43:42;;;;;;;;;;;17.10;99.90;;;;;;5033765;28;19989;-64
2023/10/22 02:46:07;;;;;;;;;;;17.00;99.90;;;;;;5033673;28;20029;-64
2023/10/22 02:48:33;;;;;;;;;;;17.00;99.90;;;;;;5033741;28;20294;-64
2023/10/22 02:51:02;;;;;;;;;;;17.00;99.90;;;;;;5033543;28;20387;-64
2023/10/22 02:53:28;;;;;;;;;;;17.00;99.90;;;;;;5033814;28;19986;-63
2023/10/22 02:56:00;;;;;;;;;;;17.00;99.90;;;;;;5033670;28;19990;-62
2023/10/22 02:58:28;;;;;;;;;;;17.00;99.90;;;;;;5033929;28;19990;-62
2023/10/22 03:00:55;;;;;;;;;;;16.90;99.90;;;;;;5033588;28;20349;-62
2023/10/22 03:03:21;;;;;;;;;;;16.90;99.90;;;;;;5033961;28;19986;-62
2023/10/22 03:05:46;;;;;;;;;;;16.90;99.90;;;;;;5033488;28;19993;-63
2023/10/22 03:08:12;;;;;;;;;;;16.90;99.90;;;;;;5033428;28;19986;-64
2023/10/22 03:10:37;;;;;;;;;;;16.90;99.90;;;;;;5033278;28;20526;-62
2023/10/22 03:13:04;;;;;;;;;;;16.90;99.90;;;;;;5033405;28;20356;-61
2023/10/22 03:15:30;;;;;;;;;;;16.90;99.90;;;;;;5033624;28;20001;-62
2023/10/22 03:17:56;;;;;;;;;;;16.80;99.90;;;;;;5033569;28;20486;-63
2023/10/22 03:20:23;;;;;;;;;;;16.80;99.90;;;;;;5033201;28;20040;-63
2023/10/22 03:22:48;;;;;;;;;;;16.70;99.90;;;;;;5033245;28;20072;-63
2023/10/22 03:25:14;;;;;;;;;;;16.70;99.90;;;;;;5033157;28;20044;-64
2023/10/22 03:27:39;;;;;;;;;;;16.60;99.90;;;;;;5033312;28;20022;-62
2023/10/22 03:30:05;;;;;;;;;;;16.60;99.90;;;;;;5035139;28;20017;-61
2023/10/22 03:32:31;;;;;;;;;;;16.60;99.90;;;;;;5037155;28;19986;-61
2023/10/22 03:34:56;;;;;;;;;;;16.50;99.90;;;;;;5037200;28;20072;-64
2023/10/22 03:37:22;;;;;;;;;;;16.50;99.90;;;;;;5037151;28;20440;-62
2023/10/22 03:39:48;;;;;;;;;;;16.60;99.90;;;;;;5036822;28;19982;-61
2023/10/22 03:42:14;;;;;;;;;;;16.50;99.90;;;;;;5037136;28;19989;-61
2023/10/22 03:44:40;;;;;;;;;;;16.50;99.90;;;;;;5037042;28;19986;-64
2023/10/22 03:47:05;;;;;;;;;;;16.40;99.90;;;;;;5036832;28;19990;-63
2023/10/22 03:49:31;;;;;;;;;;;16.50;99.90;;;;;;5036770;28;20040;-62
2023/10/22 03:51:56;;;;;;;;;;;16.40;99.90;;;;;;5036833;28;19986;-62
2023/10/22 03:54:23;;;;;;;;;;;16.50;99.90;;;;;;5036632;28;20068;-63
2023/10/22 03:56:48;;;;;;;;;;;16.60;99.90;;;;;;5037017;28;20383;-60
2023/10/22 03:59:14;;;;;;;;;;;16.60;99.90;;;;;;5036858;28;20032;-63
2023/10/22 04:01:39;;;;;;;;;;;16.60;99.90;;;;;;5036570;28;20486;-65
2023/10/22 04:04:05;;;;;;;;;;;16.60;99.90;;;;;;5036801;28;19982;-63
2023/10/22 04:06:31;;;;;;;;;;;16.50;99.90;;;;;;5036708;28;19982;-62
2023/10/22 04:08:57;;;;;;;;;;;16.50;99.90;;;;;;5036381;28;19982;-62
2023/10/22 04:11:22;;;;;;;;;;;16.40;99.90;;;;;;5036305;28;20017;-63
2023/10/22 04:13:48;;;;;;;;;;;16.40;99.90;;;;;;5036524;28;19982;-63
2023/10/22 04:16:16;;;;;;;;;;;16.40;99.90;;;;;;5036311;28;20096;-62
2023/10/22 04:18:42;;;;;;;;;;;16.40;99.90;;;;;;5036099;28;20085;-63
2023/10/22 04:21:11;;;;;;;;;;;16.40;99.90;;;;;;5036366;28;20467;-64
2023/10/22 04:23:37;;;;;;;;;;;16.40;99.90;;;;;;5036374;28;19986;-64
2023/10/22 04:26:04;;;;;;;;;;;16.30;99.90;;;;;;5036210;28;20076;-63
2023/10/22 04:28:29;;;;;;;;;;;16.30;99.90;;;;;;5036470;28;20032;-61
2023/10/22 04:30:55;;;;;;;;;;;16.20;99.90;;;;;;5036175;28;20014;-63
2023/10/22 04:33:21;;;;;;;;;;;16.20;99.90;;;;;;5036047;28;19982;-61
2023/10/22 04:35:47;;;;;;;;;;;16.20;99.90;;;;;;5036328;28;20453;-63
2023/10/22 04:38:13;;;;;;;;;;;16.10;99.90;;;;;;5035796;28;20518;-61
2023/10/22 04:40:39;;;;;;;;;;;16.10;99.90;;;;;;5035609;28;20409;-61
2023/10/22 04:43:04;;;;;;;;;;;16.10;99.90;;;;;;5035787;28;19983;-63
2023/10/22 04:45:30;;;;;;;;;;;16.10;99.90;;;;;;5035992;28;19986;-64
2023/10/22 04:47:56;;;;;;;;;;;16.10;99.90;;;;;;5035877;28;19993;-64
2023/10/22 04:50:21;;;;;;;;;;;16.00;99.90;;;;;;5035683;28;20006;-64
2023/10/22 04:52:47;;;;;;;;;;;16.10;99.90;;;;;;5035572;28;20444;-63
2023/10/22 04:55:13;;;;;;;;;;;16.00;99.90;;;;;;5035770;28;20445;-64
2023/10/22 04:57:38;;;;;;;;;;;16.00;99.90;;;;;;5035580;28;20399;-60
2023/10/22 05:00:07;;;;;;;;;;;16.00;99.90;;;;;;5035551;28;19982;-61
2023/10/22 05:02:33;;;;;;;;;;;15.90;99.90;;;;;;5035587;28;20394;-63
2023/10/22 05:04:59;;;;;;;;;;;15.80;99.90;;;;;;5035362;28;20073;-64
2023/10/22 05:07:24;;;;;;;;;;;15.80;99.90;;;;;;5035352;28;20027;-62
2023/10/22 05:09:50;;;;;;;;;;;15.90;99.90;;;;;;5035403;28;20345;-63
2023/10/22 05:12:16;;;;;;;;;;;15.90;99.90;;;;;;5035484;28;19990;-63
2023/10/22 05:14:41;;;;;;;;;;;15.90;99.90;;;;;;5035403;28;19988;-62
2023/10/22 05:17:07;;;;;;;;;;;15.80;99.90;;;;;;5035434;28;20002;-61
2023/10/22 05:19:33;;;;;;;;;;;15.80;99.90;;;;;;5035060;28;20404;-63
2023/10/22 05:21:58;;;;;;;;;;;15.90;99.90;;;;;;5035024;28;20081;-64
2023/10/22 05:24:24;;;;;;;;;;;16.00;99.90;;;;;;5035087;28;20432;-64
2023/10/22 05:26:50;;;;;;;;;;;16.00;99.90;;;;;;5035099;28;20348;-64
2023/10/22 05:29:16;;;;;;;;;;;16.10;99.90;;;;;;5035246;28;19990;-64
2023/10/22 05:31:42;;;;;;;;;;;16.20;99.90;;;;;;5034968;28;20498;-61
2023/10/22 05:34:08;;;;;;;;;;;16.20;99.90;;;;;;5034998;28;20084;-64
2023/10/22 05:36:34;;;;;;;;;;;16.20;99.90;;;;;;5034669;28;20444;-62
2023/10/22 05:39:00;;;;;;;;;;;16.20;99.90;;;;;;5034957;28;19983;-61
2023/10/22 05:41:26;;;;;;;;;;;16.20;99.90;;;;;;5034792;28;20468;-62
2023/10/22 05:43:56;;;;;;;;;;;16.20;99.90;;;;;;5034641;28;20123;-63
2023/10/22 05:46:28;;;;;;;;;;;16.30;99.90;;;;;;5034691;28;20042;-64
2023/10/22 05:48:53;;;;;;;;;;;16.30;99.90;;;;;;5034928;28;20456;-61
2023/10/22 05:51:19;;;;;;;;;;;16.40;99.90;;;;;;5034298;28;20041;-61
2023/10/22 05:53:45;;;;;;;;;;;16.40;99.90;;;;;;5033694;28;19989;-64
2023/10/22 05:56:11;;;;;;;;;;;16.40;99.90;;;;;;5034826;28;20432;-64
2023/10/22 05:58:37;;;;;;;;;;;16.50;99.90;;;;;;5034404;28;19992;-64
2023/10/22 06:01:02;;;;;;;;;;;16.70;99.90;;;;;;5035053;28;20012;-62
2023/10/22 06:03:28;;;;;;;;;;;16.80;99.90;;;;;;5034413;28;20356;-63
2023/10/22 06:05:54;;;;;;;;;;;16.90;99.90;;;;;;5034084;28;20036;-62
2023/10/22 06:08:20;;;;;;;;;;;17.00;99.90;;;;;;5034685;28;19983;-63
2023/10/22 06:10:48;;;;;;;;;;;17.10;99.90;;;;;;5034314;28;20384;-61
2023/10/22 06:13:14;;;;;;;;;;;17.20;99.90;;;;;;5034185;28;20065;-63
2023/10/22 06:15:42;;;;;;;;;;;17.40;99.90;;;;;;5034499;28;20022;-63
2023/10/22 06:18:08;;;;;;;;;;;17.40;99.90;;;;;;5034184;28;20356;-63
2023/10/22 06:20:34;;;;;;;;;;;17.40;99.90;;;;;;5033753;28;20022;-63
2023/10/22 06:23:01;;;;;;;;;;;17.40;99.90;;;;;;5034328;28;19982;-64
2023/10/22 06:25:26;;;;;;;;;;;17.40;99.90;;;;;;5034123;28;20445;-64
2023/10/22 06:27:55;;;;;;;;;;;17.50;99.90;;;;;;5034008;28;19993;-61
2023/10/22 06:30:25;;;;;;;;;;;17.50;99.90;;;;;;5033842;28;20006;-62
2023/10/22 06:32:54;;;;;;;;;;;17.60;99.90;;;;;;5033948;28;19989;-64
2023/10/22 06:35:20;;;;;;;;;;;17.80;99.90;;;;;;5033876;28;19986;-62
2023/10/22 06:37:50;;;;;;;;;;;18.00;99.90;;;;;;5033793;28;20555;-63
2023/10/22 06:40:16;;;;;;;;;;;18.10;99.90;;;;;;5033844;28;19993;-62
2023/10/22 06:42:42;;;;;;;;;;;18.10;99.90;;;;;;5033798;28;20037;-63
2023/10/22 06:45:08;;;;;;;;;;;18.20;99.90;;;;;;5033725;28;19982;-60
2023/10/22 06:47:35;;;;;;;;;;;18.30;99.90;;;;;;5034006;28;19986;-63
2023/10/22 06:50:00;;;;;;;;;;;19.00;99.90;;;;;;5033449;28;20100;-64
2023/10/22 06:52:26;;;;;;;;;;;19.20;99.90;;;;;;5033634;28;20025;-64
2023/10/22 06:54:53;;;;;;;;;;;18.90;99.90;;;;;;5033877;28;19986;-62
2023/10/22 06:57:18;;;;;;;;;;;18.70;99.90;;;;;;5033721;28;19983;-61
2023/10/22 06:59:47;;;;;;;;;;;18.40;99.90;;;;;;5033764;28;19997;-61
2023/10/22 07:02:13;;;;;;;;;;;18.20;99.90;;;;;;5033577;28;20460;-61
2023/10/22 07:04:40;;;;;;;;;;;18.00;99.90;;;;;;5036012;28;19982;-64
2023/10/22 07:07:06;;;;;;;;;;;18.20;99.90;;;;;;5040292;28;20043;-63
2023/10/22 07:09:31;;;;;;;;;;;21.10;99.90;;;;;;5040088;28;20073;-64
2023/10/22 07:11:57;;;;;;;;;;;23.80;90.40;;;;;;5040058;28;19985;-62
2023/10/22 07:14:22;;;;;;;;;;;25.10;70.00;;;;;;5039942;28;19982;-64
2023/10/22 07:16:48;;;;;;;;;;;25.20;70.60;;;;;;5039937;28;19998;-63
2023/10/22 07:19:13;;;;;;;;;;;24.30;67.50;;;;;;5039775;28;20040;-64
2023/10/22 07:21:39;;;;;;;;;;;23.30;71.50;;;;;;5039949;28;20018;-63
2023/10/22 07:24:05;;;;;;;;;;;22.30;76.40;;;;;;5040020;28;19982;-64
2023/10/22 07:26:30;;;;;;;;;;;21.70;86.40;;;;;;5040042;28;19983;-62
2023/10/22 07:28:56;;;;;;;;;;;21.40;90.80;;;;;;5039991;28;19986;-61
2023/10/22 07:31:22;;;;;;;;;;;21.30;93.40;;;;;;5039938;28;20006;-63
2023/10/22 07:33:48;;;;;;;;;;;23.10;93.10;;;;;;5040111;28;20032;-63
2023/10/22 07:36:14;;;;;;;;;;;23.50;80.30;;;;;;5040115;28;20032;-64
2023/10/22 07:38:40;;;;;;;;;;;22.90;82.70;;;;;;5039642;28;19986;-62
2023/10/22 07:41:12;;;;;;;;;;;22.40;89.60;;;;;;5039837;28;19995;-61
2023/10/22 07:43:38;;;;;;;;;;;21.90;91.30;;;;;;5039831;28;20069;-60
2023/10/22 07:46:04;;;;;;;;;;;21.50;94.10;;;;;;5039542;28;20021;-63
2023/10/22 07:48:30;;;;;;;;;;;21.10;96.60;;;;;;5039797;28;20378;-63
2023/10/22 07:51:06;;;;;;;;;;;20.80;95.50;;;;;;5039958;28;20108;-64
2023/10/22 07:53:32;;;;;;;;;;;20.60;98.80;;;;;;5040012;28;19986;-62
2023/10/22 07:55:57;;;;;;;;;;;20.60;99.40;;;;;;5039760;28;20005;-60
2023/10/22 07:58:23;;;;;;;;;;;20.70;99.90;;;;;;5039790;28;19986;-64
2023/10/22 08:00:49;;;;;;;;;;;20.80;99.90;;;;;;5039320;28;20344;-61
2023/10/22 08:03:14;;;;;;;;;;;20.90;99.40;;;;;;5039643;28;19989;-61
2023/10/22 08:05:40;;;;;;;;;;;21.00;98.80;;;;;;5039737;28;19989;-62
2023/10/22 08:08:05;;;;;;;;;;;21.10;98.10;;;;;;5039527;28;19986;-61
2023/10/22 08:10:31;;;;;;;;;;;21.20;97.70;;;;;;5039551;28;20006;-64
2023/10/22 08:12:57;;;;;;;;;;;21.10;97.70;;;;;;5039793;28;20073;-64
2023/10/22 08:15:22;;;;;;;;;;;21.20;98.20;;;;;;5038620;28;19983;-61
2023/10/22 08:17:48;;;;;;;;;;;21.20;98.60;;;;;;5035866;28;20424;-62
2023/10/22 08:20:13;;;;;;;;;;;21.50;97.60;;;;;;5036186;28;20018;-62
2023/10/22 08:22:39;;;;;;;;;;;24.40;95.00;;;;;;5036509;28;19993;-62
2023/10/22 08:25:05;;;;;;;;;;;27.20;71.40;;;;;;5036630;28;20703;-62
2023/10/22 08:27:32;;;;;;;;;;;29.10;63.50;;;;;;5036742;28;20384;-64
2023/10/22 08:29:58;;;;;;;;;;;30.30;55.20;;;;;;5035999;28;20457;-61
2023/10/22 08:32:23;;;;;;;;;;;31.00;51.60;;;;;;5036129;28;19983;-63
2023/10/22 08:34:49;;;;;;;;;;;31.50;51.70;;;;;;5036299;28;20499;-64
2023/10/22 08:37:14;;;;;;;;;;;32.10;50.50;;;;;;5036119;28;20517;-64
2023/10/22 08:39:40;;;;;;;;;;;32.40;45.50;;;;;;5035902;28;19982;-63
2023/10/22 08:42:09;;;;;;;;;;;32.60;47.60;;;;;;5036035;28;19985;-64
2023/10/22 08:44:40;;;;;;;;;;;32.70;46.10;;;;;;5035999;28;19986;-65
2023/10/22 08:47:07;;;;;;;;;;;32.60;46.80;;;;;;5035873;28;19986;-64
2023/10/22 08:49:34;;;;;;;;;;;32.50;43.40;;;;;;5035774;28;20502;-61
2023/10/22 08:52:00;;;;;;;;;;;32.30;43.40;;;;;;5035686;28;20476;-61
2023/10/22 08:54:26;;;;;;;;;;;32.20;43.10;;;;;;5035936;28;19990;-62
2023/10/22 08:56:52;;;;;;;;;;;32.10;41.10;;;;;;5036181;28;19986;-63
2023/10/22 08:59:18;;;;;;;;;;;31.50;43.90;;;;;;5035561;28;19993;-61
2023/10/22 09:01:43;;;;;;;;;;;31.10;45.40;;;;;;5035808;28;20354;-62
2023/10/22 09:04:09;;;;;;;;;;;30.80;46.00;;;;;;5035670;28;20033;-62
2023/10/22 09:06:35;;;;;;;;;;;30.50;44.00;;;;;;5035479;28;20405;-63
2023/10/22 09:09:02;;;;;;;;;;;30.20;45.80;;;;;;5035328;28;19989;-61
2023/10/22 09:11:27;;;;;;;;;;;30.00;44.40;;;;;;5035603;28;20006;-62
2023/10/22 09:13:53;;;;;;;;;;;29.90;42.80;;;;;;5035110;28;19990;-62
2023/10/22 09:16:28;;;;;;;;;;;29.90;47.50;;;;;;5035152;28;20009;-63
2023/10/22 09:18:54;;;;;;;;;;;30.10;44.00;;;;;;5035221;28;20017;-64
2023/10/22 09:21:20;;;;;;;;;;;30.70;42.30;;;;;;5035179;28;20433;-64
2023/10/22 09:24:07;;;;;;;;;;;30.40;40.60;;;;;;5035135;28;19986;-63
2023/10/22 09:26:42;;;;;;;;;;;29.80;38.40;;;;;;5035225;28;20032;-62
2023/10/22 09:29:07;;;;;;;;;;;29.00;41.10;;;;;;5034910;28;19986;-64
2023/10/22 09:31:33;;;;;;;;;;;28.90;43.90;;;;;;5035116;28;20005;-65
2023/10/22 09:33:59;;;;;;;;;;;29.00;42.50;;;;;;5035287;28;19986;-64
2023/10/22 09:36:25;;;;;;;;;;;28.90;42.60;;;;;;5035125;28;20444;-62
2023/10/22 09:38:51;;;;;;;;;;;28.70;44.00;;;;;;5034950;28;19982;-62
2023/10/22 09:41:23;;;;;;;;;;;28.50;43.40;;;;;;5034843;28;19986;-61
2023/10/22 09:43:52;;;;;;;;;;;28.20;43.10;;;;;;5034526;28;20029;-62
2023/10/22 09:46:21;;;;;;;;;;;28.00;45.10;;;;;;5034667;28;19986;-65
2023/10/22 09:48:47;;;;;;;;;;;28.10;45.40;;;;;;5034789;28;19986;-64
2023/10/22 09:51:13;;;;;;;;;;;28.00;46.40;;;;;;5034607;28;20104;-62
2023/10/22 09:53:42;;;;;;;;;;;27.90;47.70;;;;;;5034665;28;20454;-62
2023/10/22 09:56:10;;;;;;;;;;;27.60;48.40;;;;;;5034703;28;20395;-63
2023/10/22 09:58:41;;;;;;;;;;;27.30;48.30;;;;;;5034304;28;20073;-63
2023/10/22 10:01:09;;;;;;;;;;;27.00;49.10;;;;;;5034516;28;20396;-61
2023/10/22 10:03:36;;;;;;;;;;;26.80;50.20;;;;;;5034405;28;20448;-62
2023/10/22 10:06:03;;;;;;;;;;;26.60;50.30;;;;;;5034366;28;20028;-61
2023/10/22 10:08:28;;;;;;;;;;;26.30;50.50;;;;;;5034450;28;20035;-63
2023/10/22 10:10:54;;;;;;;;;;;26.20;50.90;;;;;;5034013;28;20014;-62
2023/10/22 10:13:20;;;;;;;;;;;26.00;52.20;;;;;;5034133;28;19989;-65
2023/10/22 10:15:57;;;;;;;;;;;25.60;53.40;;;;;;5034586;28;20112;-62
2023/10/22 10:18:43;;;;;;;;;;;25.40;55.10;;;;;;5034429;28;20001;-62
2023/10/22 10:21:27;;;;;;;;;;;25.10;57.00;;;;;;5033966;28;19998;-62
2023/10/22 10:24:11;;;;;;;;;;;24.60;59.00;;;;;;5033965;28;19986;-63
2023/10/22 10:26:36;;;;;;;;;;;24.20;64.00;;;;;;5033921;28;20040;-64
2023/10/22 10:29:04;;;;;;;;;;;24.20;65.50;;;;;;5033952;28;20014;-60
2023/10/22 10:31:30;;;;;;;;;;;24.20;69.40;;;;;;5034007;28;20475;-63
2023/10/22 10:33:59;;;;;;;;;;;24.30;68.80;;;;;;5034222;28;19990;-63
2023/10/22 10:36:25;;;;;;;;;;;24.20;74.00;;;;;;5034130;28;20074;-63
2023/10/22 10:38:51;;;;;;;;;;;24.10;78.60;;;;;;5034092;28;20080;-64
2023/10/22 10:41:36;;;;;;;;;;;23.90;76.10;;;;;;5033706;28;20456;-61
2023/10/22 10:44:06;;;;;;;;;;;24.10;77.50;;;;;;5033533;28;20406;-62
2023/10/22 10:46:32;;;;;;;;;;;24.20;80.50;;;;;;5034031;28;19993;-64
2023/10/22 10:48:57;;;;;;;;;;;24.30;84.90;;;;;;5033577;28;19986;-61
2023/10/22 10:51:24;;;;;;;;;;;24.20;84.10;;;;;;5033885;28;20017;-62
2023/10/22 10:54:07;;;;;;;;;;;24.10;84.10;;;;;;5033691;28;19986;-62
2023/10/22 10:56:52;;;;;;;;;;;24.20;90.60;;;;;;5033257;28;19985;-61
2023/10/22 10:59:43;;;;;;;;;;;24.10;91.30;;;;;;5033634;28;19989;-64
2023/10/22 11:02:10;;;;;;;;;;;23.90;93.70;;;;;;5029675;28;20455;-62
2023/10/22 11:04:37;;;;;;;;;;;23.80;85.80;;;;;;5033618;28;19986;-65
2023/10/22 11:07:03;;;;;;;;;;;23.70;89.40;;;;;;5033729;28;19990;-63
2023/10/22 11:09:30;;;;;;;;;;;23.80;93.70;;;;;;5033526;28;20329;-63
2023/10/22 11:11:56;;;;;;;;;;;23.80;93.80;;;;;;5033410;28;20484;-64
2023/10/22 11:14:22;;;;;;;;;;;23.80;91.80;;;;;;5033442;28;19988;-61
2023/10/22 11:16:54;;;;;;;;;;;23.90;92.00;;;;;;5033636;28;20002;-64
2023/10/22 11:19:24;;;;;;;;;;;23.90;93.20;;;;;;5033338;28;20443;-63
2023/10/22 11:21:54;;;;;;;;;;;23.80;93.80;;;;;;5032599;28;21569;-61
2023/10/22 11:24:20;;;;;;;;;;;23.70;96.30;;;;;;5033291;28;20036;-64
2023/10/22 11:26:47;;;;;;;;;;;23.60;95.70;;;;;;5033379;28;19990;-63
2023/10/22 11:29:13;;;;;;;;;;;23.40;96.70;;;;;;5033555;28;19997;-63
2023/10/22 11:31:38;;;;;;;;;;;23.10;97.80;;;;;;5033593;28;20010;-65
2023/10/22 11:34:14;;;;;;;;;;;22.90;99.20;;;;;;5033546;28;20337;-63
2023/10/22 11:36:39;;;;;;;;;;;22.70;99.90;;;;;;5033410;28;20029;-61
2023/10/22 11:39:31;;;;;;;;;;;22.70;99.90;;;;;;5033049;28;20005;-61
2023/10/22 11:42:00;;;;;;;;;;;22.70;99.90;;;;;;5029268;28;19989;-63
2023/10/22 11:44:27;;;;;;;;;;;22.70;99.90;;;;;;5033479;28;19986;-62
2023/10/22 11:46:53;;;;;;;;;;;22.80;99.90;;;;;;5033384;28;20021;-63
2023/10/22 11:49:19;;;;;;;;;;;22.80;99.90;;;;;;5033183;28;20029;-61
2023/10/22 11:51:45;;;;;;;;;;;22.90;99.90;;;;;;5034395;28;20448;-64
2023/10/22 11:54:10;;;;;;;;;;;22.90;99.50;;;;;;5036649;28;20073;-62
2023/10/22 11:56:36;;;;;;;;;;;22.90;99.90;;;;;;5037054;28;19990;-62
2023/10/22 11:59:02;;;;;;;;;;;23.10;99.40;;;;;;5036798;28;20395;-61
2023/10/22 12:01:27;;;;;;;;;;;22.90;97.90;;;;;;5036956;28;20036;-61
2023/10/22 12:03:53;;;;;;;;;;;22.80;98.50;;;;;;5036639;28;19989;-60
2023/10/22 12:06:18;;;;;;;;;;;22.80;99.90;;;;;;5036578;28;19993;-64
2023/10/22 12:08:44;;;;;;;;;;;22.80;99.90;;;;;;5036460;28;19986;-63
2023/10/22 12:11:10;;;;;;;;;;;22.80;99.90;;;;;;5036334;28;20045;-61
2023/10/22 12:13:35;;;;;;;;;;;22.80;99.90;;;;;;5036642;28;19989;-60
2023/10/22 12:16:02;;;;;;;;;;;22.90;99.90;;;;;;5036365;28;19983;-62
2023/10/22 12:18:28;;;;;;;;;;;23.00;98.60;;;;;;5036107;28;19982;-63
2023/10/22 12:20:55;;;;;;;;;;;22.70;98.80;;;;;;5036400;28;20455;-63
2023/10/22 12:23:20;;;;;;;;;;;22.70;99.30;;;;;;5036154;28;19983;-63
2023/10/22 12:25:46;;;;;;;;;;;22.60;97.90;;;;;;5036136;28;19987;-61
2023/10/22 12:28:11;;;;;;;;;;;22.50;98.70;;;;;;5036371;28;20026;-60
2023/10/22 12:30:38;;;;;;;;;;;22.70;98.50;;;;;;5036242;28;20010;-62
2023/10/22 12:33:04;;;;;;;;;;;22.90;98.20;;;;;;5036224;28;19982;-63
2023/10/22 12:35:30;;;;;;;;;;;23.00;97.70;;;;;;5036202;28;19992;-63
2023/10/22 12:37:55;;;;;;;;;;;23.00;97.20;;;;;;5035904;28;19986;-61
2023/10/22 12:40:21;;;;;;;;;;;22.90;99.90;;;;;;5036005;28;20468;-61
2023/10/22 12:42:46;;;;;;;;;;;22.70;99.90;;;;;;5035956;28;20345;-61
2023/10/22 12:45:12;;;;;;;;;;;22.70;99.90;;;;;;5035987;28;19987;-60
2023/10/22 12:47:38;;;;;;;;;;;22.70;99.90;;;;;;5035922;28;19982;-64
2023/10/22 12:50:04;;;;;;;;;;;22.80;99.90;;;;;;5035708;28;19993;-62
2023/10/22 12:52:30;;;;;;;;;;;23.00;99.90;;;;;;5035561;28;19982;-64
2023/10/22 12:54:56;;;;;;;;;;;23.40;99.90;;;;;;5018010;28;20037;-61
2023/10/22 12:57:21;;;;;;;;;;;23.80;98.60;;;;;;5035707;28;20018;-63
2023/10/22 12:59:47;;;;;;;;;;;23.90;95.30;;;;;;5035636;28;20525;-61
2023/10/22 13:02:13;;;;;;;;;;;23.90;95.90;;;;;;5035237;28;19989;-63
2023/10/22 13:04:38;;;;;;;;;;;24.10;96.10;;;;;;5035544;28;20432;-62
2023/10/22 13:07:04;;;;;;;;;;;24.50;95.30;;;;;;5035314;28;20029;-61
2023/10/22 13:09:29;;;;;;;;;;;24.90;92.80;;;;;;5035739;28;20033;-62
2023/10/22 13:11:55;;;;;;;;;;;25.30;88.10;;;;;;5035471;28;20006;-64
2023/10/22 13:14:21;;;;;;;;;;;25.40;85.00;;;;;;5035556;28;20432;-60
2023/10/22 13:16:48;;;;;;;;;;;25.40;86.80;;;;;;5035518;28;20402;-64
2023/10/22 13:19:13;;;;;;;;;;;25.40;88.40;;;;;;5035381;28;20021;-62
2023/10/22 13:21:39;;;;;;;;;;;25.60;85.90;;;;;;5034994;28;20487;-63
2023/10/22 13:24:05;;;;;;;;;;;25.60;80.80;;;;;;5035467;28;20443;-62
2023/10/22 13:26:31;;;;;;;;;;;25.50;83.80;;;;;;5035250;28;19982;-63
2023/10/22 13:29:00;;;;;;;;;;;25.60;85.20;;;;;;5035079;28;20401;-62
2023/10/22 13:31:26;;;;;;;;;;;25.80;86.70;;;;;;5035301;28;20014;-60
2023/10/22 13:33:52;;;;;;;;;;;26.00;79.40;;;;;;5035072;28;19989;-62
2023/10/22 13:36:17;;;;;;;;;;;26.00;82.90;;;;;;5034737;28;20036;-63
2023/10/22 13:38:43;;;;;;;;;;;26.10;80.90;;;;;;5017197;28;19990;-62
2023/10/22 13:41:08;;;;;;;;;;;26.20;76.50;;;;;;5034865;28;19982;-61
2023/10/22 13:43:34;;;;;;;;;;;26.30;76.50;;;;;;5034937;28;20014;-65
2023/10/22 13:46:01;;;;;;;;;;;26.40;76.10;;;;;;5034683;28;20440;-65
2023/10/22 13:48:27;;;;;;;;;;;26.40;73.80;;;;;;5034906;28;20033;-62
2023/10/22 13:50:53;;;;;;;;;;;26.40;72.40;;;;;;5034385;28;20010;-65
2023/10/22 13:53:18;;;;;;;;;;;26.40;76.30;;;;;;5034523;28;19993;-65
2023/10/22 13:55:44;;;;;;;;;;;26.70;73.70;;;;;;5034760;28;19982;-61
2023/10/22 13:58:09;;;;;;;;;;;26.70;77.10;;;;;;5034688;28;19988;-61
2023/10/22 14:00:38;;;;;;;;;;;26.80;71.70;;;;;;5034367;28;19994;-62
2023/10/22 14:03:04;;;;;;;;;;;26.70;75.00;;;;;;5034548;28;19983;-63
2023/10/22 14:05:30;;;;;;;;;;;26.70;70.10;;;;;;5034434;28;19993;-62
2023/10/22 14:07:55;;;;;;;;;;;26.80;70.50;;;;;;5034354;28;20372;-61
2023/10/22 14:10:21;;;;;;;;;;;26.90;69.70;;;;;;5034363;28;20384;-62
2023/10/22 14:12:46;;;;;;;;;;;27.00;70.70;;;;;;5034266;28;19993;-62